Aquilla, Texas
Current Conditions -  °F | °C
As of 6:51 PM on Monday 22 Dec 2014 (Local Time) from KACT Reporting Station
Clear Clear  
Wind Chill: 14°   Ceiling: Unl
Heat Index: 14°   Visibility: 10mi
Dew Point:   Wind: 8mph
Humidity: 58%   Direction: 320°NW
Pressure: 29.66"   Gusts: NA
Location:  31.85°N, 97.22°W
Report Text: KACT 230051Z 32007KT 10SM CLR 14/06 A2966 RMK AO2 SLP042 T01440061
Loading
Personal Weather Stations






























Interactive Weather Map New forecast layout! Learn more

10-Day Weather Forecast

Advertisements
Track Severe Weather on mobile